Time;durP1;ratioP1;P1;durP2;ratioP2;P2;SDS_P1;SDS_P2;PMS_P1;PMS_P2;Temp;Humidity;BMP_temperature;BMP_pressure;BME280_temperature;BME280_humidity;BME280_pressure;Samples;Min_cycle;Max_cycle;Signal;HPM_P1;HPM_P2
2020/12/31 00:02:15;;;;;;;10.05;5.53;;;3.80;75.50;;;2.48;60.10;94016.31;5050040;28;20222;-81
2020/12/31 00:04:42;;;;;;;7.85;5.28;;;3.60;76.20;;;2.41;60.00;94013.59;5053838;28;20215;-81
2020/12/31 00:07:09;;;;;;;8.68;5.35;;;3.70;75.50;;;2.34;59.69;94010.84;5050524;28;20619;-80
2020/12/31 00:09:36;;;;;;;9.30;5.60;;;3.50;75.30;;;2.27;59.74;94009.91;5052178;28;20261;-80
2020/12/31 00:12:08;;;;;;;8.38;5.95;;;3.50;75.40;;;2.23;60.05;94008.59;5067199;28;20195;-81
2020/12/31 00:14:35;;;;;;;8.85;5.93;;;3.50;75.70;;;2.18;60.63;94016.84;5049713;28;20258;-81
2020/12/31 00:17:02;;;;;;;8.00;5.82;;;3.40;75.60;;;2.16;60.20;94017.97;5042810;28;20378;-81
2020/12/31 00:19:29;;;;;;;7.57;5.28;;;3.30;75.60;;;2.11;60.46;94018.44;5044450;28;20224;-81
2020/12/31 00:21:56;;;;;;;9.10;5.55;;;3.30;75.60;;;2.06;60.41;94018.13;5044285;28;20741;-81
2020/12/31 00:24:24;;;;;;;8.02;5.35;;;3.30;75.60;;;2.02;60.32;94016.84;5057764;28;20227;-81
2020/12/31 00:26:51;;;;;;;7.97;5.22;;;3.30;75.60;;;1.99;60.48;94020.56;5075124;28;20718;-81
2020/12/31 00:29:18;;;;;;;7.30;5.30;;;3.20;75.70;;;1.96;60.37;94017.50;5057917;28;20218;-81
2020/12/31 00:31:44;;;;;;;10.32;6.15;;;3.20;75.70;;;1.91;60.73;94015.38;5044040;28;20614;-80
2020/12/31 00:34:12;;;;;;;10.20;5.88;;;3.10;75.80;;;1.89;60.42;94020.72;5055993;28;20708;-81
2020/12/31 00:36:39;;;;;;;10.02;5.88;;;3.10;75.80;;;1.87;60.34;94019.28;5056731;28;20222;-81
2020/12/31 00:39:08;;;;;;;9.68;5.65;;;3.10;75.90;;;1.84;60.61;94009.25;5041855;28;20539;-81
2020/12/31 00:41:34;;;;;;;8.38;5.47;;;3.00;75.80;;;1.82;60.55;94012.00;5074755;28;20294;-81
2020/12/31 00:44:04;;;;;;;10.15;6.10;;;3.00;75.90;;;1.79;61.03;94011.50;5075072;28;20203;-81
2020/12/31 00:46:31;;;;;;;8.13;5.88;;;3.00;76.00;;;1.79;60.96;94020.06;5038882;28;20287;-81
2020/12/31 00:48:58;;;;;;;9.52;5.80;;;3.00;76.90;;;1.76;60.86;94018.59;5041425;28;20337;-81
2020/12/31 00:51:24;;;;;;;8.63;5.78;;;2.90;76.00;;;1.78;61.23;94018.44;5058296;28;20199;-82
2020/12/31 00:53:52;;;;;;;7.65;5.25;;;2.90;76.20;;;1.78;60.61;94015.84;5057787;28;20195;-81
2020/12/31 00:56:20;;;;;;;8.23;5.28;;;2.90;76.10;;;1.76;60.64;94018.59;5055764;28;20195;-81
2020/12/31 00:58:48;;;;;;;8.07;5.85;;;2.90;76.10;;;1.72;60.75;94019.91;5057955;28;20203;-81
2020/12/31 01:01:15;;;;;;;7.70;5.22;;;2.90;76.20;;;1.74;60.98;94024.91;5056146;28;20223;-81
2020/12/31 01:03:43;;;;;;;8.40;5.60;;;2.90;76.20;;;1.75;60.96;94031.69;5087573;28;20232;-81
2020/12/31 01:06:10;;;;;;;6.85;5.40;;;2.90;76.20;;;1.70;60.74;94021.81;5066983;28;20577;-80
2020/12/31 01:08:37;;;;;;;6.68;5.25;;;2.90;76.30;;;1.72;61.06;94026.81;5052941;28;20245;-81
2020/12/31 01:11:04;;;;;;;8.93;5.60;;;2.80;76.20;;;1.71;60.86;94030.38;5070757;28;20768;-81
2020/12/31 01:13:31;;;;;;;7.07;5.03;;;2.90;76.40;;;1.65;60.84;94026.66;5037604;28;20203;-81
2020/12/31 01:15:58;;;;;;;6.20;4.78;;;2.80;76.20;;;1.65;60.51;94025.84;5040693;28;20231;-80
2020/12/31 01:18:25;;;;;;;7.43;5.28;;;2.80;76.20;;;1.58;60.92;94030.84;5053625;28;20602;-81
2020/12/31 01:20:52;;;;;;;6.63;5.25;;;2.80;76.10;;;1.52;60.79;94028.91;5042135;28;20303;-80
2020/12/31 01:23:19;;;;;;;8.40;5.43;;;2.70;76.10;;;1.48;61.04;94030.16;5037762;28;20208;-80
2020/12/31 01:25:51;;;;;;;8.02;5.28;;;2.80;76.20;;;1.47;60.91;94036.31;5038580;28;20763;-81
2020/12/31 01:28:18;;;;;;;6.65;4.82;;;2.70;76.20;;;1.40;60.85;94029.22;5054463;28;20613;-81
2020/12/31 01:30:45;;;;;;;7.07;4.18;;;2.70;76.10;;;1.37;60.71;94033.88;5057359;28;20216;-81
2020/12/31 01:33:12;;;;;;;6.47;4.80;;;2.60;76.00;;;1.33;60.53;94035.13;5059121;28;20197;-80
2020/12/31 01:35:39;;;;;;;7.93;4.97;;;2.60;76.10;;;1.28;60.98;94033.03;5059909;28;20237;-81
2020/12/31 01:38:05;;;;;;;7.25;4.95;;;2.50;76.00;;;1.26;60.95;94032.38;5056808;28;20286;-81
2020/12/31 01:40:32;;;;;;;7.45;4.88;;;2.50;76.20;;;1.26;60.80;94034.97;5055620;28;20315;-80
2020/12/31 01:42:59;;;;;;;7.00;4.60;;;2.50;77.00;;;1.23;60.73;94043.84;5070430;28;20201;-80
2020/12/31 01:45:25;;;;;;;5.82;4.45;;;2.40;76.20;;;1.19;60.84;94037.34;5069784;28;20302;-81
2020/12/31 01:47:53;;;;;;;7.22;4.95;;;2.40;76.20;;;1.11;60.80;94030.41;5037635;28;20658;-82
2020/12/31 01:50:19;;;;;;;7.72;4.95;;;2.40;76.20;;;1.11;60.88;94032.16;5066208;28;20293;-80
2020/12/31 01:52:47;;;;;;;7.13;4.97;;;2.40;76.20;;;1.07;61.06;94031.66;5058328;28;20209;-82
2020/12/31 01:55:14;;;;;;;7.22;4.97;;;2.30;76.20;;;1.03;60.70;94038.09;5042795;28;20248;-81
2020/12/31 01:57:41;;;;;;;7.05;4.97;;;2.30;76.20;;;0.99;60.92;94041.13;5057228;28;20215;-81
2020/12/31 02:00:10;;;;;;;5.55;4.70;;;2.20;76.10;;;0.93;60.64;94043.38;5055978;28;20216;-80
2020/12/31 02:02:39;;;;;;;7.60;5.38;;;2.20;76.10;;;0.89;61.26;94044.66;5053417;28;20314;-81
2020/12/31 02:05:09;;;;;;;7.18;4.63;;;2.10;76.20;;;0.88;61.00;94045.63;5020453;28;20212;-80
2020/12/31 02:07:36;;;;;;;6.70;5.03;;;2.10;76.20;;;0.86;61.27;94047.53;5062209;28;20187;-81
2020/12/31 02:10:04;;;;;;;6.38;5.00;;;2.10;76.30;;;0.85;61.09;94042.53;5036931;28;20226;-80
2020/12/31 02:12:32;;;;;;;7.22;5.30;;;2.10;76.40;;;0.84;60.98;94040.91;5053236;28;20219;-81
2020/12/31 02:14:59;;;;;;;6.80;4.70;;;2.10;76.40;;;0.84;60.97;94052.03;5051519;28;20227;-81
2020/12/31 02:17:26;;;;;;;6.55;4.57;;;2.00;76.30;;;0.80;60.95;94048.16;5054462;28;20195;-81
2020/12/31 02:19:52;;;;;;;7.28;4.72;;;2.00;76.30;;;0.76;60.97;94046.84;5069916;28;20276;-80
2020/12/31 02:22:19;;;;;;;6.82;5.03;;;2.00;76.30;;;0.73;60.91;94053.13;5053357;28;20206;-80
2020/12/31 02:24:47;;;;;;;6.93;5.20;;;2.00;76.40;;;0.71;61.23;94060.22;5056366;28;20219;-80
2020/12/31 02:27:14;;;;;;;7.75;5.18;;;1.90;76.40;;;0.70;61.55;94052.63;5068563;28;20575;-81
2020/12/31 02:29:41;;;;;;;9.18;5.88;;;1.90;76.40;;;0.69;61.79;94051.00;5051977;28;20234;-81
2020/12/31 02:32:08;;;;;;;9.00;5.72;;;1.90;76.70;;;0.74;61.56;94051.34;5064417;28;20547;-80
2020/12/31 02:34:34;;;;;;;6.68;4.90;;;2.00;76.70;;;0.73;61.47;94047.97;5070131;28;20385;-80
2020/12/31 02:37:01;;;;;;;7.15;5.15;;;1.90;76.70;;;0.72;61.34;94055.84;5042622;28;20258;-81
2020/12/31 02:39:28;;;;;;;8.30;5.35;;;1.90;76.60;;;0.71;61.30;94055.03;5035423;28;20216;-80
2020/12/31 02:41:55;;;;;;;6.40;4.80;;;1.90;76.60;;;0.68;61.29;94051.97;5037915;28;20298;-80
2020/12/31 02:44:21;;;;;;;7.47;5.07;;;1.90;76.60;;;0.66;61.53;94051.28;5035273;28;20258;-80
2020/12/31 02:46:48;;;;;;;8.93;5.90;;;1.90;76.60;;;0.67;61.64;94047.75;5053083;28;20195;-81
2020/12/31 02:49:15;;;;;;;7.68;5.78;;;1.80;76.60;;;0.68;61.48;94050.19;5052636;28;20223;-81
2020/12/31 02:51:45;;;;;;;7.25;5.30;;;1.80;76.70;;;0.69;61.37;94049.22;5070062;28;20200;-80
2020/12/31 02:54:12;;;;;;;8.32;5.55;;;1.80;76.80;;;0.68;61.67;94060.50;5038887;28;20238;-81
2020/12/31 02:56:38;;;;;;;7.70;6.03;;;1.80;76.80;;;0.69;62.04;94051.00;5054280;28;20717;-80
2020/12/31 02:59:05;;;;;;;7.53;5.70;;;1.80;76.90;;;0.78;62.04;94057.81;5035722;28;20750;-80
2020/12/31 03:01:32;;;;;;;7.78;5.30;;;1.90;77.10;;;0.82;61.86;94061.72;5047741;28;20212;-80
2020/12/31 03:04:00;;;;;;;10.00;5.50;;;1.90;77.10;;;0.86;61.87;94063.03;5053008;28;20658;-81
2020/12/31 03:06:26;;;;;;;8.30;5.45;;;1.90;77.10;;;0.88;61.88;94068.03;5036735;28;20191;-81
2020/12/31 03:08:53;;;;;;;7.80;4.97;;;1.90;77.10;;;0.85;61.90;94060.59;5050496;28;20282;-81
2020/12/31 03:11:22;;;;;;;7.05;5.47;;;2.00;77.20;;;0.92;62.14;94066.78;5057406;28;20732;-81
2020/12/31 03:13:51;;;;;;;8.15;6.53;;;2.00;77.20;;;0.94;62.05;94063.06;5067090;28;20187;-80
2020/12/31 03:16:19;;;;;;;7.43;5.40;;;2.00;77.20;;;0.94;62.12;94063.06;5046385;28;20215;-81
2020/12/31 03:18:46;;;;;;;8.77;5.35;;;2.00;77.20;;;0.96;61.88;94057.75;5038381;28;20200;-80
2020/12/31 03:21:14;;;;;;;8.35;5.13;;;2.10;77.20;;;0.96;62.29;94070.66;5030523;28;20728;-81
2020/12/31 03:23:41;;;;;;;8.13;5.40;;;2.10;77.30;;;0.99;62.13;94064.38;5049879;28;20208;-80
2020/12/31 03:26:08;;;;;;;6.68;4.53;;;2.10;77.30;;;1.01;61.75;94065.84;5070357;28;20269;-80
2020/12/31 03:28:35;;;;;;;6.05;4.80;;;2.10;78.00;;;0.98;61.43;94061.00;5067748;28;20198;-80
2020/12/31 03:31:03;;;;;;;5.68;4.10;;;2.10;77.10;;;0.97;61.75;94069.69;5066149;28;20218;-80
2020/12/31 03:33:29;;;;;;;6.82;5.00;;;2.10;77.10;;;0.97;61.99;94066.31;5054852;28;20203;-80
2020/12/31 03:35:56;;;;;;;6.88;5.00;;;2.00;77.10;;;0.99;61.88;94067.78;5033814;28;20273;-80
2020/12/31 03:38:22;;;;;;;7.47;5.30;;;2.00;77.20;;;1.03;62.29;94069.09;5037586;28;20200;-80
2020/12/31 03:40:49;;;;;;;8.02;5.15;;;2.10;77.30;;;1.02;62.14;94064.09;5020530;28;20228;-80
2020/12/31 03:43:16;;;;;;;7.28;5.20;;;2.10;77.20;;;1.05;62.30;94071.50;5036623;28;20206;-81
2020/12/31 03:45:43;;;;;;;7.57;5.18;;;2.10;77.30;;;1.03;62.02;94068.28;5065447;28;20689;-80
2020/12/31 03:48:10;;;;;;;6.28;4.65;;;2.10;77.30;;;1.04;61.60;94069.88;5054741;28;20244;-81
2020/12/31 03:50:38;;;;;;;6.65;4.57;;;2.10;77.20;;;0.95;61.78;94056.97;5049024;28;20303;-81
2020/12/31 03:53:06;;;;;;;5.55;4.38;;;2.10;77.10;;;0.94;61.66;94065.66;5033594;28;20210;-80
2020/12/31 03:55:33;;;;;;;5.32;4.07;;;2.10;76.90;;;0.89;61.47;94069.66;5037040;28;20219;-81
2020/12/31 03:58:00;;;;;;;6.40;4.10;;;2.10;76.90;;;0.82;61.39;94072.06;5051640;28;20192;-80
2020/12/31 04:00:27;;;;;;;5.78;3.97;;;2.10;76.90;;;0.79;61.39;94075.75;5039425;28;20231;-80
2020/12/31 04:02:54;;;;;;;5.97;4.13;;;2.00;76.80;;;0.70;61.25;94061.16;5034945;28;20192;-79
2020/12/31 04:05:21;;;;;;;6.80;4.00;;;2.00;76.70;;;0.64;61.33;94067.72;5034171;28;20215;-79
2020/12/31 04:07:48;;;;;;;5.88;4.68;;;1.90;76.50;;;0.56;60.96;94064.28;5037343;28;20195;-80
2020/12/31 04:10:14;;;;;;;10.35;5.60;;;1.90;76.50;;;0.45;61.28;94070.50;5049188;28;20212;-79
2020/12/31 04:12:41;;;;;;;7.40;5.03;;;1.80;76.30;;;0.37;61.27;94071.28;5040756;28;20196;-79
2020/12/31 04:15:08;;;;;;;7.35;5.30;;;1.80;76.40;;;0.30;61.06;94072.81;5051306;28;20360;-80
2020/12/31 04:17:35;;;;;;;7.57;5.20;;;1.70;76.30;;;0.24;61.30;94079.38;5050477;28;20563;-80
2020/12/31 04:20:06;;;;;;;7.63;4.93;;;1.60;76.30;;;0.14;61.20;94070.94;5024280;28;20225;-80
2020/12/31 04:22:32;;;;;;;6.38;5.35;;;1.60;76.40;;;0.06;61.21;94074.25;5050332;28;20208;-80
2020/12/31 04:24:59;;;;;;;8.80;5.03;;;1.50;76.30;;;0.01;61.38;94068.72;5028931;28;20226;-81
2020/12/31 04:27:26;;;;;;;6.35;4.60;;;1.40;76.20;;;-0.07;60.79;94069.47;5031637;28;20297;-81
2020/12/31 04:29:53;;;;;;;6.85;5.13;;;1.30;76.20;;;-0.13;61.36;94070.06;5045617;28;20220;-80
2020/12/31 04:32:21;;;;;;;7.28;4.80;;;1.30;76.30;;;-0.20;61.41;94077.53;5047271;28;20564;-81
2020/12/31 04:34:48;;;;;;;6.47;4.80;;;1.20;76.30;;;-0.21;61.37;94080.28;5047921;28;20629;-80
2020/12/31 04:37:14;;;;;;;8.07;4.95;;;1.20;76.40;;;-0.24;61.48;94083.16;5069316;28;20200;-81
2020/12/31 04:39:41;;;;;;;7.22;5.18;;;1.10;76.40;;;-0.27;61.33;94084.28;5057252;28;20212;-80
2020/12/31 04:42:08;;;;;;;6.60;4.75;;;1.10;76.40;;;-0.35;61.53;94079.81;5047654;28;20237;-79
2020/12/31 04:44:36;;;;;;;6.13;4.25;;;1.10;76.50;;;-0.37;61.59;94079.16;5035427;28;20690;-80
2020/12/31 04:47:04;;;;;;;5.32;4.20;;;1.00;76.50;;;-0.37;61.35;94080.94;5052196;28;20215;-81
2020/12/31 04:49:49;;;;;;;4.97;3.92;;;0.90;76.50;;;-0.44;61.68;94078.13;5066436;28;20689;-81
2020/12/31 04:52:17;;;;;;;6.00;3.92;;;1.00;76.90;;;-0.43;61.33;94082.31;5057810;28;20188;-80
2020/12/31 04:54:44;;;;;;;5.20;3.90;;;0.90;76.60;;;-0.42;61.55;94080.56;5032207;28;20216;-80
2020/12/31 04:57:11;;;;;;;4.72;3.97;;;0.90;76.70;;;-0.47;61.39;94085.34;5051274;28;20200;-81
2020/12/31 04:59:38;;;;;;;4.88;3.92;;;0.80;76.50;;;-0.52;61.17;94084.00;5065823;28;20216;-80
2020/12/31 05:02:08;;;;;;;6.18;4.47;;;0.80;76.50;;;-0.57;61.46;94093.91;5050927;28;20205;-80
2020/12/31 05:04:35;;;;;;;6.28;4.10;;;0.80;76.60;;;-0.59;61.49;94103.53;5046353;28;20228;-80
2020/12/31 05:07:02;;;;;;;13.70;7.53;;;0.70;76.50;;;-0.62;61.52;94108.19;5051039;28;20195;-80
2020/12/31 05:09:29;;;;;;;6.97;4.57;;;0.70;76.60;;;-0.65;61.57;94107.53;5023695;28;20224;-80
2020/12/31 05:11:56;;;;;;;8.57;4.63;;;0.70;76.60;;;-0.68;61.30;94107.00;5060206;28;20216;-79
2020/12/31 05:14:33;;;;;;;7.47;5.05;;;0.60;76.60;;;-0.66;61.27;94110.22;5047145;28;20230;-80
2020/12/31 05:17:16;;;;;;;7.68;5.63;;;0.60;77.00;;;-0.65;61.57;94112.69;5058129;28;20197;-80
2020/12/31 05:19:44;;;;;;;7.28;5.07;;;0.60;77.10;;;-0.63;61.81;94109.94;5071691;28;20220;-80
2020/12/31 05:22:17;;;;;;;7.00;5.50;;;0.60;76.90;;;-0.60;61.55;94114.00;5065866;28;20247;-81
2020/12/31 05:24:47;;;;;;;7.80;5.65;;;0.60;77.10;;;-0.58;61.91;94110.31;5037741;28;20724;-80
2020/12/31 05:27:24;;;;;;;8.50;5.38;;;0.60;77.20;;;-0.54;61.72;94118.56;5048878;28;20190;-80
2020/12/31 05:30:08;;;;;;;8.20;6.28;;;0.60;78.00;;;-0.49;62.01;94116.38;5050245;28;20207;-79
2020/12/31 05:32:40;;;;;;;6.53;5.57;;;0.60;77.40;;;-0.43;62.12;94118.38;5054028;28;20211;-80
2020/12/31 05:35:12;;;;;;;7.68;5.93;;;0.70;77.50;;;-0.39;62.16;94114.56;5044693;28;20282;-80
2020/12/31 05:37:39;;;;;;;8.50;6.20;;;0.70;77.50;;;-0.34;62.08;94112.38;5064496;28;20233;-81
2020/12/31 05:40:10;;;;;;;7.78;5.85;;;0.70;77.40;;;-0.30;62.10;94117.25;5070492;28;20242;-80
2020/12/31 05:42:40;;;;;;;8.95;6.10;;;0.80;77.50;;;-0.27;61.87;94112.63;5056425;28;20200;-81
2020/12/31 05:45:10;;;;;;;9.30;6.97;;;0.80;77.50;;;-0.23;62.21;94115.69;5045078;28;20243;-80
2020/12/31 05:47:48;;;;;;;10.50;7.00;;;0.80;77.40;;;-0.19;61.98;94110.09;5037675;28;20188;-81
2020/12/31 05:50:34;;;;;;;10.40;7.28;;;0.90;77.70;;;-0.15;62.14;94105.47;5064593;28;20224;-81
2020/12/31 05:53:00;;;;;;;9.80;6.82;;;0.90;77.60;;;-0.11;62.39;94105.97;5053287;28;20196;-81
2020/12/31 05:55:28;;;;;;;10.23;6.40;;;0.90;77.60;;;-0.09;62.05;94102.31;5051700;28;20258;-80
2020/12/31 05:57:56;;;;;;;9.60;6.40;;;1.00;77.60;;;-0.02;62.08;94118.81;5037925;28;20291;-80
2020/12/31 06:00:30;;;;;;;9.10;6.20;;;1.10;77.70;;;-0.03;62.04;94109.44;5044746;28;20611;-80
2020/12/31 06:03:01;;;;;;;6.70;5.28;;;1.10;77.70;;;-0.05;61.88;94113.13;5064889;28;20220;-80
2020/12/31 06:05:29;;;;;;;7.43;5.57;;;1.10;77.30;;;-0.09;62.06;94116.97;5037757;28;20218;-81
2020/12/31 06:07:59;;;;;;;7.30;5.85;;;1.10;77.30;;;-0.11;62.01;94111.97;5056802;28;20199;-80
2020/12/31 06:10:31;;;;;;;10.07;6.05;;;1.10;77.40;;;-0.10;62.13;94112.75;5073383;28;20212;-81
2020/12/31 06:13:04;;;;;;;8.55;5.57;;;1.10;77.50;;;-0.14;62.14;94117.41;5064850;28;20591;-80
2020/12/31 06:15:37;;;;;;;7.93;5.22;;;1.00;77.30;;;-0.08;62.30;94118.59;5022938;28;20255;-81
2020/12/31 06:18:05;;;;;;;7.05;5.57;;;1.10;77.50;;;-0.07;62.85;94115.84;5061155;28;20633;-80
2020/12/31 06:20:36;;;;;;;7.75;5.63;;;1.10;78.40;;;-0.04;63.23;94123.31;5049778;28;20219;-80
2020/12/31 06:23:08;;;;;;;10.10;6.22;;;1.10;77.60;;;0.04;62.71;94114.84;5045008;28;20658;-80
2020/12/31 06:25:45;;;;;;;8.55;6.65;;;1.10;77.80;;;0.06;62.80;94117.25;5036649;28;20212;-80
2020/12/31 06:28:20;;;;;;;10.52;6.63;;;1.20;78.60;;;0.14;63.04;94117.34;5056945;28;20605;-80
2020/12/31 06:30:52;;;;;;;9.68;7.07;;;1.20;77.90;;;0.21;63.42;94120.13;5056496;28;20215;-80
2020/12/31 06:33:42;;;;;;;10.93;7.20;;;1.30;78.20;;;0.28;63.66;94113.41;5046619;28;20242;-81
2020/12/31 06:36:09;;;;;;;9.18;6.53;;;1.30;78.50;;;0.31;63.43;94119.09;5037833;28;20231;-80
2020/12/31 06:38:38;;;;;;;10.68;7.90;;;1.40;78.20;;;0.35;63.77;94124.78;5048489;28;20192;-81
2020/12/31 06:41:31;;;;;;;10.32;7.43;;;1.40;78.30;;;0.40;63.53;94121.75;5068266;28;20571;-80
2020/12/31 06:44:07;;;;;;;10.07;7.28;;;1.50;78.50;;;0.41;63.48;94116.44;5068426;28;20196;-80
2020/12/31 06:46:46;;;;;;;8.70;6.78;;;1.50;78.40;;;0.45;63.51;94116.94;5061270;28;20252;-81
2020/12/31 06:49:14;;;;;;;9.80;7.18;;;1.50;78.30;;;0.46;63.69;94123.72;5054056;28;20212;-81
2020/12/31 06:51:42;;;;;;;11.88;7.70;;;1.60;78.30;;;0.50;63.96;94114.75;5037651;28;20222;-80
2020/12/31 06:54:09;;;;;;;9.73;7.05;;;1.60;78.30;;;0.53;64.00;94113.63;5053391;28;20424;-80
2020/12/31 06:56:42;;;;;;;10.10;6.97;;;1.60;78.40;;;0.56;63.77;94113.31;5054711;28;20272;-79
2020/12/31 06:59:35;;;;;;;8.23;6.10;;;1.70;78.70;;;0.59;63.80;94115.63;5056841;28;20600;-80
2020/12/31 07:02:20;;;;;;;10.60;6.90;;;1.70;78.50;;;0.57;63.72;94113.16;5055696;28;20203;-81
2020/12/31 07:04:47;;;;;;;9.90;6.63;;;1.70;78.40;;;0.60;63.96;94115.47;5053169;28;20215;-81
2020/12/31 07:07:20;;;;;;;11.18;7.65;;;1.80;78.40;;;0.61;63.76;94111.09;5041886;28;20202;-81
2020/12/31 07:09:57;;;;;;;9.75;6.75;;;1.80;78.50;;;0.56;63.70;94097.84;5068489;28;20281;-81
2020/12/31 07:12:31;;;;;;;11.27;6.88;;;1.80;78.40;;;0.63;63.90;94109.19;5044528;28;20207;-80
2020/12/31 07:14:58;;;;;;;8.35;6.07;;;1.80;78.40;;;0.64;63.85;94105.66;5043887;28;20228;-81
2020/12/31 07:17:24;;;;;;;7.47;6.22;;;1.70;78.20;;;0.64;63.67;94118.53;5058047;28;20198;-81
2020/12/31 07:19:59;;;;;;;9.13;5.93;;;1.80;78.20;;;0.60;63.74;94110.28;5071639;28;20287;-81
2020/12/31 07:22:29;;;;;;;8.50;6.28;;;1.80;78.20;;;0.59;63.66;94116.41;5052350;28;20202;-81
2020/12/31 07:25:02;;;;;;;10.70;7.15;;;1.80;78.20;;;0.62;63.78;94113.53;5040795;28;20216;-80
2020/12/31 07:27:39;;;;;;;11.25;7.25;;;1.80;78.30;;;0.62;63.52;94110.13;5034324;28;20230;-80
2020/12/31 07:30:19;;;;;;;10.02;6.82;;;1.80;78.40;;;0.63;63.55;94111.75;5065088;28;20289;-79
2020/12/31 07:32:55;;;;;;;14.55;8.50;;;1.80;78.30;;;0.64;63.44;94111.59;5028848;28;20204;-80
2020/12/31 07:35:40;;;;;;;18.23;9.57;;;1.80;78.30;;;0.60;63.34;94104.34;5049922;28;20223;-79
2020/12/31 07:38:12;;;;;;;12.35;7.60;;;1.70;78.20;;;0.66;63.50;94102.91;5050491;28;20196;-81
2020/12/31 07:40:45;;;;;;;9.85;6.75;;;1.80;78.30;;;0.69;63.48;94108.56;5083808;28;20211;-80
2020/12/31 07:43:18;;;;;;;7.55;5.78;;;1.80;78.40;;;0.71;63.52;94111.00;5059046;28;20271;-80
2020/12/31 07:45:52;;;;;;;9.45;6.38;;;1.70;78.20;;;0.74;63.45;94121.03;5042677;28;20305;-80
2020/12/31 07:48:21;;;;;;;7.70;5.93;;;1.80;78.40;;;0.75;63.46;94118.28;5043885;28;20665;-81
2020/12/31 07:51:02;;;;;;;9.30;6.20;;;1.80;78.30;;;0.75;63.63;94109.75;5057806;28;20702;-80
2020/12/31 07:53:30;;;;;;;9.27;6.50;;;1.80;78.50;;;0.82;63.97;94109.94;5027640;28;20211;-81
2020/12/31 07:55:58;;;;;;;9.82;7.35;;;1.90;78.60;;;0.88;64.17;94114.50;5034398;28;20496;-81
2020/12/31 07:58:32;;;;;;;10.23;6.55;;;1.90;78.80;;;0.95;63.94;94107.75;5065747;28;20200;-81
2020/12/31 08:01:07;;;;;;;8.60;6.20;;;1.90;78.90;;;1.01;63.89;94101.19;5053749;28;20239;-81
2020/12/31 08:03:34;;;;;;;8.13;5.90;;;2.10;79.00;;;1.10;63.91;94110.63;5050523;28;20192;-79
2020/12/31 08:06:07;;;;;;;9.40;7.03;;;2.00;78.80;;;1.15;64.00;94102.38;5045731;28;20700;-80
2020/12/31 08:08:34;;;;;;;8.93;6.80;;;2.10;79.00;;;1.16;63.72;94104.00;5068388;28;20182;-79
2020/12/31 08:11:09;;;;;;;10.35;8.15;;;2.10;79.00;;;1.27;64.06;94103.75;5051472;28;20246;-79
2020/12/31 08:13:37;;;;;;;8.82;6.85;;;2.10;79.00;;;1.32;64.14;94104.09;5050591;28;20195;-80
2020/12/31 08:16:05;;;;;;;12.38;7.75;;;2.20;79.10;;;1.41;63.56;94100.56;5053472;28;20223;-80
2020/12/31 08:18:33;;;;;;;10.98;7.88;;;2.30;79.10;;;1.48;64.24;94093.00;5036184;28;20204;-79
2020/12/31 08:21:04;;;;;;;12.60;8.57;;;2.30;79.10;;;1.54;64.15;94092.38;5057653;28;20223;-79
2020/12/31 08:23:38;;;;;;;11.75;8.80;;;2.40;79.20;;;1.62;63.89;94090.78;5055354;28;20285;-80
2020/12/31 08:26:09;;;;;;;10.93;8.40;;;2.40;79.20;;;1.67;63.79;94083.38;5036707;28;20239;-79
2020/12/31 08:28:38;;;;;;;13.25;8.75;;;2.50;79.20;;;1.75;63.72;94083.41;5023234;28;20214;-80
2020/12/31 08:31:16;;;;;;;14.20;9.60;;;2.70;79.40;;;1.81;64.35;94095.69;5039573;28;20639;-80
2020/12/31 08:34:04;;;;;;;12.68;8.90;;;2.60;79.30;;;1.89;64.41;94087.13;5040277;28;20206;-80
2020/12/31 08:36:31;;;;;;;11.30;8.70;;;2.70;79.20;;;1.96;63.82;94090.69;5046122;28;20743;-81
2020/12/31 08:39:05;;;;;;;11.65;8.80;;;2.80;79.30;;;2.01;63.87;94088.44;5055944;28;20209;-80
2020/12/31 08:41:32;;;;;;;15.23;9.55;;;2.80;79.20;;;2.06;63.90;94093.97;5039454;28;20179;-80
2020/12/31 08:44:04;;;;;;;12.48;8.43;;;2.90;79.20;;;2.19;63.70;94101.25;5048030;28;20286;-80
2020/12/31 08:46:31;;;;;;;13.07;9.07;;;2.90;79.20;;;2.25;63.52;94086.88;5059225;28;20291;-80
2020/12/31 08:48:58;;;;;;;11.10;8.02;;;3.10;79.20;;;2.34;63.41;94088.47;5040448;28;20199;-79
2020/12/31 08:51:29;;;;;;;12.65;8.18;;;3.10;79.20;;;2.38;63.42;94083.78;5041528;28;20199;-80
2020/12/31 08:54:00;;;;;;;11.70;8.57;;;3.20;79.20;;;2.49;63.17;94088.66;5034303;28;20199;-81
2020/12/31 08:56:33;;;;;;;9.95;7.55;;;3.20;79.10;;;2.56;63.19;94092.22;5041765;28;20218;-81
2020/12/31 08:59:14;;;;;;;10.30;7.53;;;3.30;79.20;;;2.67;63.12;94093.66;5055632;28;20192;-81
2020/12/31 09:01:44;;;;;;;11.60;8.00;;;3.40;79.20;;;2.73;63.04;94094.78;5052227;28;20192;-81
2020/12/31 09:04:20;;;;;;;12.10;7.95;;;3.40;79.00;;;2.80;63.06;94090.56;5076980;28;20192;-81
2020/12/31 09:06:51;;;;;;;12.02;8.57;;;3.50;79.00;;;2.89;62.60;94083.56;5058204;28;20183;-80
2020/12/31 09:09:27;;;;;;;11.20;8.50;;;3.60;79.00;;;2.95;62.50;94090.69;5058555;28;20234;-80
2020/12/31 09:11:58;;;;;;;12.48;8.35;;;3.70;78.90;;;3.04;62.25;94094.09;5026853;28;20198;-81
2020/12/31 09:14:30;;;;;;;11.90;7.60;;;3.70;78.90;;;3.09;62.25;94096.97;5058379;28;20216;-81
2020/12/31 09:16:57;;;;;;;11.75;8.68;;;3.80;78.80;;;3.16;62.11;94094.53;5059510;28;20307;-81
2020/12/31 09:19:25;;;;;;;11.98;8.27;;;3.90;78.70;;;3.22;61.97;94083.50;5040874;28;20209;-81
2020/12/31 09:21:52;;;;;;;10.80;7.70;;;4.00;78.60;;;3.30;62.11;94086.06;5039579;28;20292;-81
2020/12/31 09:24:23;;;;;;;10.18;7.22;;;4.00;78.50;;;3.37;61.78;94091.41;5034626;28;20580;-80
2020/12/31 09:26:57;;;;;;;9.85;7.13;;;4.00;78.40;;;3.42;61.41;94088.28;5057699;28;20677;-80
2020/12/31 09:29:30;;;;;;;9.48;7.05;;;4.10;78.30;;;3.46;61.44;94085.19;5044429;28;20223;-81
2020/12/31 09:31:58;;;;;;;10.90;7.90;;;4.20;78.30;;;3.54;61.26;94081.78;5055234;28;20250;-81
2020/12/31 09:34:25;;;;;;;11.80;7.70;;;4.20;78.30;;;3.58;61.19;94085.63;5053201;28;20220;-81
2020/12/31 09:37:00;;;;;;;10.57;7.00;;;4.20;78.20;;;3.63;61.15;94082.53;5042673;28;20265;-82
2020/12/31 09:39:27;;;;;;;9.73;6.70;;;4.30;78.10;;;3.67;60.95;94081.22;5067583;28;20626;-81
2020/12/31 09:41:53;;;;;;;8.55;6.40;;;4.30;78.10;;;3.77;61.16;94081.00;5037972;28;20220;-81
2020/12/31 09:44:20;;;;;;;10.05;6.88;;;4.50;78.20;;;3.81;60.83;94077.91;5048530;28;20216;-79
2020/12/31 09:46:50;;;;;;;8.27;6.10;;;4.40;78.00;;;3.89;60.77;94076.25;5051324;28;20279;-81
2020/12/31 09:49:17;;;;;;;8.73;6.55;;;4.50;78.00;;;3.95;60.89;94073.75;5054338;28;20219;-81
2020/12/31 09:51:46;;;;;;;8.07;6.15;;;4.50;78.00;;;3.97;60.63;94060.63;5061372;28;20200;-80
2020/12/31 09:54:12;;;;;;;7.55;6.15;;;4.60;77.90;;;4.04;60.54;94053.78;5054425;28;20358;-80
2020/12/31 09:56:39;;;;;;;7.80;5.80;;;4.70;77.80;;;4.10;60.71;94049.66;5054177;28;20677;-81
2020/12/31 09:59:07;;;;;;;8.32;5.93;;;4.70;77.80;;;4.17;60.56;94050.59;5032120;28;20223;-81
2020/12/31 10:01:35;;;;;;;6.80;5.63;;;4.70;77.80;;;4.21;60.50;94051.88;5057764;28;20569;-80
2020/12/31 10:04:04;;;;;;;7.40;5.30;;;4.70;77.70;;;4.27;60.78;94050.34;5054828;28;20296;-79
2020/12/31 10:06:30;;;;;;;6.93;5.20;;;4.80;77.80;;;4.30;60.54;94044.81;5022473;28;20208;-81
2020/12/31 10:08:58;;;;;;;5.60;4.75;;;4.80;77.70;;;4.33;60.46;94047.88;5056325;28;20194;-80
2020/12/31 10:11:24;;;;;;;4.93;4.07;;;4.90;77.70;;;4.38;60.31;94039.56;5043622;28;20196;-81
2020/12/31 10:13:51;;;;;;;6.38;4.40;;;4.90;77.60;;;4.43;60.35;94044.22;5065336;28;20692;-81
2020/12/31 10:16:19;;;;;;;6.07;4.35;;;5.00;77.60;;;4.49;60.38;94035.72;5060885;28;20231;-81
2020/12/31 10:18:46;;;;;;;5.68;4.30;;;5.00;77.60;;;4.52;60.27;94029.38;5049486;28;20197;-81
2020/12/31 10:21:13;;;;;;;4.47;3.58;;;5.10;77.50;;;4.57;59.88;94027.06;5019984;28;20793;-82
2020/12/31 10:23:40;;;;;;;4.82;4.10;;;5.10;77.30;;;4.64;59.57;94035.78;5052649;28;20715;-81
2020/12/31 10:26:06;;;;;;;5.35;4.07;;;5.10;77.30;;;4.68;59.83;94024.03;5043870;28;20221;-81
2020/12/31 10:28:33;;;;;;;4.40;3.78;;;5.20;77.30;;;4.72;59.96;94021.88;5071880;28;20215;-81
2020/12/31 10:31:00;;;;;;;5.85;4.00;;;5.20;77.20;;;4.77;59.49;94020.38;5055873;28;20243;-80
2020/12/31 10:33:27;;;;;;;4.80;4.20;;;5.30;77.30;;;4.87;59.79;94024.50;5055045;28;20191;-80
2020/12/31 10:35:53;;;;;;;4.85;3.70;;;5.30;77.20;;;4.91;59.68;94018.75;5035156;28;20293;-81
2020/12/31 10:38:20;;;;;;;5.03;3.80;;;5.40;77.20;;;4.95;59.20;94021.81;5034204;28;20196;-81
2020/12/31 10:40:48;;;;;;;4.90;3.55;;;5.40;77.90;;;4.95;58.98;94022.59;5040581;28;20227;-81